Airfield :







YOU CAN JOIN US ON...

 
LOGIN :

Register | Disclaimer

   EN    FR    IT 

 









Legend :    VFR   Marginal VFR   IFR   Intensive IFR   Very Intensive IFR
Visi :
Ceiling :
>= 8 km
>= 3000ft
5 to 8 km
1000 to 3000 ft
1500m to 5 km
500 to 1000 ft
800 to 1500m
200 to 500 ft
< 800m
< 200 ft
Symbols :   Thunderstorms  Fog  Heavy snow  Heavy precipitations  Wind > 20 kt






- Airport Elevation : 83 ft


KBHB - Hancock County-Bar Harbor

CURRENT METAR :
  • 090656Z AUTO 05004KT 1/2SM FG OVC001 16/16 A2978 RMK AO2 RAB25E37 SLP087 P0000 T01610156 RVRNO $

EXPIRED METARs :
  • 090556Z AUTO 07005KT 3/4SM BR OVC001 16/16 A2980 RMK AO2 SLP094 60000 T01610156 10183 20156 56023 RVRNO $
  • 090541Z AUTO 10005KT 1 3/4SM BR OVC001 16/16 A2981 RMK AO2 $
  • 090510Z AUTO 10006KT 2SM BR OVC001 16/16 A2981 RMK AO2 $
  • 090456Z AUTO 11006KT 2 1/2SM BR OVC003 16/16 A2982 RMK AO2 RAB15E38 SLP101 P0000 T01610156 $
  • 090429Z AUTO 09005KT 2 1/2SM -RA BR OVC003 16/16 A2985 RMK AO2 RAB15 P0000 $

TAF KBHB
Valid from the 09 at 06:00 until the 10 at 06:00 UTC


090530Z 0906/1006 VRB03KT 2SM BR VCSH OVC003
TEMPO 0906/0908 OVC001
FM090800 VRB02KT 3SM -RA BR OVC004 WS020/23035KT
FM091100 VRB03KT 5SM -RA OVC004
FM091300 29004KT P6SM -SHRA OVC004
FM091500 33005KT P6SM -RA OVC012
KZBW FIR / North America



MET'MAP, your aeronautical weather chart ! - Copyright ORBIFLY December 2007 - Disclaimer

ORBIFLY MET'MAP TEAM :

Programming & Development : Alexandra Zaïnal
Original concept : Baudouin d'Aumeries
Technical & hardware support : Manuel Goepfert
Assistance : Marc-Olivier Méhu




SOURCES & CREDITS :

   NOAA